Time;durP1;ratioP1;P1;durP2;ratioP2;P2;SDS_P1;SDS_P2;PMS_P1;PMS_P2;Temp;Humidity;BMP_temperature;BMP_pressure;BME280_temperature;BME280_humidity;BME280_pressure;Samples;Min_cycle;Max_cycle;Signal;HPM_P1;HPM_P2
2021/09/01 00:01:48;;;;;;;;;10.75;8.50;;;;;30.07;30.35;100774.53;144079;581;131021;-70
2021/09/01 00:04:22;;;;;;;;;8.75;8.50;;;;;30.00;30.47;100774.34;144086;560;131915;-70
2021/09/01 00:06:56;;;;;;;;;9.75;9.75;;;;;29.95;30.54;100771.31;144084;600;132012;-70
2021/09/01 00:09:30;;;;;;;;;13.75;10.25;;;;;29.98;30.34;100768.28;144074;595;132013;-69
2021/09/01 00:12:04;;;;;;;;;9.75;9.75;;;;;30.02;30.42;100765.06;144094;605;132010;-69
2021/09/01 00:14:38;;;;;;;;;6.50;6.50;;;;;30.04;30.08;100763.03;144087;669;131915;-72
2021/09/01 00:17:12;;;;;;;;;9.25;8.25;;;;;30.04;30.34;100771.16;144097;625;131021;-71
2021/09/01 00:19:46;;;;;;;;;10.25;9.25;;;;;30.12;30.34;100772.16;144091;600;132012;-72
2021/09/01 00:22:20;;;;;;;;;10.00;8.75;;;;;30.02;30.49;100770.47;144088;662;132012;-72
2021/09/01 00:24:53;;;;;;;;;10.00;8.75;;;;;30.18;30.27;100776.88;144085;654;131915;-72
2021/09/01 00:27:27;;;;;;;;;7.50;7.50;;;;;30.19;30.02;100770.47;144076;596;132010;-72
2021/09/01 00:30:01;;;;;;;;;8.75;7.00;;;;;30.22;29.97;100772.81;144082;668;132915;-76
2021/09/01 00:32:35;;;;;;;;;8.75;8.00;;;;;30.15;30.00;100778.06;144091;610;132012;-76
2021/09/01 00:35:09;;;;;;;;;10.25;10.25;;;;;30.14;29.66;100779.09;144080;571;132018;-75
2021/09/01 00:37:43;;;;;;;;;7.75;7.75;;;;;30.20;29.80;100778.41;144092;596;132012;-76
2021/09/01 00:40:17;;;;;;;;;11.50;10.50;;;;;30.13;29.63;100772.00;144081;576;131916;-76
2021/09/01 00:42:51;;;;;;;;;8.75;8.75;;;;;30.11;29.94;100770.47;144098;570;132018;-75
2021/09/01 00:45:25;;;;;;;;;10.50;9.50;;;;;30.03;29.88;100761.34;144092;607;132012;-75
2021/09/01 00:47:59;;;;;;;;;6.25;6.25;;;;;30.10;30.00;100763.34;144087;572;132010;-72
2021/09/01 00:50:33;;;;;;;;;7.00;7.00;;;;;30.05;29.37;100764.72;144088;633;132020;-73
2021/09/01 00:53:08;;;;;;;;;9.25;8.50;;;;;30.09;29.31;100762.53;144078;579;132011;-73
2021/09/01 00:55:46;;;;;;;;;11.00;9.25;;;;;30.12;29.48;100759.47;144080;600;132012;-73
2021/09/01 00:58:26;;;;;;;;;8.00;8.00;;;;;30.18;29.45;100761.50;144095;614;132012;-73
2021/09/01 01:01:15;;;;;;;;;8.00;8.00;;;;;30.26;29.79;100766.03;144082;564;132043;-74
2021/09/01 01:03:53;;;;;;;;;11.00;9.00;;;;;30.44;29.33;100768.63;144088;620;133012;-74
2021/09/01 01:06:29;;;;;;;;;7.50;7.50;;;;;30.59;28.89;100770.59;144086;586;132915;-74
2021/09/01 01:09:03;;;;;;;;;7.25;7.00;;;;;30.63;29.01;100769.22;144094;569;132010;-74
2021/09/01 01:11:37;;;;;;;;;8.75;8.75;;;;;30.71;28.92;100763.78;144096;693;132018;-74
2021/09/01 01:14:11;;;;;;;;;10.25;10.25;;;;;30.71;28.63;100761.09;144091;605;132008;-72
2021/09/01 01:16:44;;;;;;;;;7.75;7.75;;;;;30.71;28.71;100761.09;144088;569;132014;-71
2021/09/01 01:19:23;;;;;;;;;9.50;8.00;;;;;30.65;28.62;100759.91;144075;577;132012;-70
2021/09/01 01:21:57;;;;;;;;;6.50;6.50;;;;;30.63;28.56;100758.41;144087;612;132915;-71
2021/09/01 01:24:52;;;;;;;;;9.25;7.50;;;;;30.54;28.56;100763.00;144090;591;132011;-70
2021/09/01 01:27:40;;;;;;;;;10.75;8.25;;;;;30.46;28.68;100766.56;144084;589;132012;-70
2021/09/01 01:30:17;;;;;;;;;7.75;7.75;;;;;30.35;29.10;100767.72;144093;593;132010;-70
2021/09/01 01:32:53;;;;;;;;;6.25;6.25;;;;;30.29;29.11;100768.44;144088;612;132012;-70
2021/09/01 01:35:36;;;;;;;;;8.00;6.25;;;;;30.26;28.99;100770.62;144094;574;132010;-69
2021/09/01 01:38:14;;;;;;;;;8.75;8.75;;;;;30.23;29.00;100768.28;144098;605;131915;-70
2021/09/01 01:40:50;;;;;;;;;11.50;8.50;;;;;30.20;29.45;100770.28;144093;616;131022;-70
2021/09/01 01:43:23;;;;;;;;;9.25;8.50;;;;;30.15;29.61;100772.66;144087;565;132012;-70
2021/09/01 01:45:57;;;;;;;;;6.25;6.25;;;;;30.17;29.76;100770.62;144071;594;132012;-72
2021/09/01 01:48:41;;;;;;;;;7.75;7.75;;;;;30.26;29.59;100774.16;144086;630;132018;-70
2021/09/01 01:51:15;;;;;;;;;8.00;8.00;;;;;30.28;29.38;100776.69;144110;615;130020;-70
2021/09/01 01:53:49;;;;;;;;;8.75;8.75;;;;;30.30;29.25;100771.97;144094;588;131020;-72
2021/09/01 01:56:23;;;;;;;;;11.25;9.75;;;;;30.30;29.04;100777.41;144114;582;131010;-72
2021/09/01 01:58:57;;;;;;;;;12.75;9.25;;;;;30.24;29.63;100775.34;144103;619;131913;-71
2021/09/01 02:01:31;;;;;;;;;9.50;9.00;;;;;30.27;29.49;100780.44;144110;607;131010;-71
2021/09/01 02:04:04;;;;;;;;;9.50;9.50;;;;;30.27;29.68;100786.69;144106;600;132047;-69
2021/09/01 02:06:38;;;;;;;;;12.00;11.00;;;;;30.42;29.97;100778.72;144105;597;132016;-71
2021/09/01 02:09:12;;;;;;;;;10.50;10.00;;;;;29.94;30.56;100792.13;144103;585;131914;-71
2021/09/01 02:11:46;;;;;;;;;10.50;10.50;;;;;30.22;29.97;100786.34;144089;615;131012;-71
2021/09/01 02:14:20;;;;;;;;;11.00;11.00;;;;;30.19;30.84;100784.00;144097;571;131018;-69
2021/09/01 02:16:54;;;;;;;;;12.00;12.00;;;;;30.38;30.39;100789.03;144109;623;131010;-69
2021/09/01 02:19:28;;;;;;;;;13.50;12.50;;;;;30.30;30.56;100785.50;144101;612;132913;-71
2021/09/01 02:22:02;;;;;;;;;10.00;10.00;;;;;30.06;30.89;100792.66;144110;641;131011;-71
2021/09/01 02:24:35;;;;;;;;;14.25;12.25;;;;;29.79;31.59;100791.06;144097;599;131476;-71
2021/09/01 02:27:09;;;;;;;;;12.25;12.25;;;;;29.68;31.92;100790.38;144116;633;130020;-70
2021/09/01 02:29:43;;;;;;;;;10.50;9.00;;;;;29.53;31.67;100786.63;144106;566;131913;-73
2021/09/01 02:32:18;;;;;;;;;11.50;11.00;;;;;29.51;31.69;100792.19;144102;569;131012;-73
2021/09/01 02:34:52;;;;;;;;;11.25;11.25;;;;;29.57;31.39;100787.97;144099;705;132913;-73
2021/09/01 02:37:26;;;;;;;;;12.00;10.75;;;;;29.53;31.16;100779.34;144091;608;131012;-73
2021/09/01 02:40:00;;;;;;;;;11.75;11.25;;;;;29.43;31.66;100773.25;144101;568;131041;-73
2021/09/01 02:42:34;;;;;;;;;9.00;8.25;;;;;29.56;31.34;100778.16;144109;609;130020;-73
2021/09/01 02:45:09;;;;;;;;;8.00;6.75;;;;;29.59;31.30;100779.69;144098;638;131012;-73
2021/09/01 02:47:42;;;;;;;;;8.50;8.50;;;;;29.63;31.24;100789.16;144113;569;130022;-73
2021/09/01 02:50:17;;;;;;;;;12.25;10.25;;;;;29.62;31.22;100788.34;144088;594;132016;-73
2021/09/01 02:52:51;;;;;;;;;10.00;10.00;;;;;29.67;31.01;100783.25;144079;571;132012;-73
2021/09/01 02:55:27;;;;;;;;;13.75;10.75;;;;;29.61;31.44;100783.06;144094;666;131913;-72
2021/09/01 02:58:01;;;;;;;;;12.75;11.25;;;;;29.60;31.39;100781.41;144087;595;132010;-73
2021/09/01 03:00:34;;;;;;;;;9.75;9.75;;;;;29.62;31.46;100787.47;144085;631;132013;-74
2021/09/01 03:03:08;;;;;;;;;9.25;9.00;;;;;29.62;31.54;100784.75;144075;579;132010;-74
2021/09/01 03:05:42;;;;;;;;;10.50;10.50;;;;;29.64;31.56;100794.41;144073;573;132018;-71
2021/09/01 03:08:16;;;;;;;;;14.00;12.25;;;;;29.63;31.65;100800.00;144085;603;132012;-71
2021/09/01 03:10:50;;;;;;;;;10.50;9.50;;;;;29.61;31.68;100807.41;144083;563;132020;-71
2021/09/01 03:13:24;;;;;;;;;11.50;10.25;;;;;29.59;31.96;100812.16;144090;569;131031;-72
2021/09/01 03:15:58;;;;;;;;;14.50;12.00;;;;;29.54;32.14;100808.09;144077;563;131913;-72
2021/09/01 03:18:32;;;;;;;;;13.75;13.00;;;;;29.44;32.28;100818.19;144081;599;132012;-71
2021/09/01 03:21:06;;;;;;;;;11.25;10.75;;;;;29.32;32.35;100814.09;144088;572;132913;-72
2021/09/01 03:23:40;;;;;;;;;11.25;11.25;;;;;29.25;32.76;100824.72;144092;612;132010;-72
2021/09/01 03:26:14;;;;;;;;;13.75;13.75;;;;;29.21;32.86;100829.56;144077;609;132913;-73
2021/09/01 03:28:48;;;;;;;;;12.50;12.50;;;;;29.25;32.96;100827.41;144071;566;132011;-69
2021/09/01 03:31:21;;;;;;;;;11.25;11.25;;;;;29.26;33.14;100828.28;144076;592;132012;-70
2021/09/01 03:33:55;;;;;;;;;11.50;11.50;;;;;29.19;33.28;100826.19;144081;586;132012;-72
2021/09/01 03:36:29;;;;;;;;;13.75;12.50;;;;;29.15;33.33;100824.81;144078;605;131913;-72
2021/09/01 03:39:03;;;;;;;;;15.25;14.25;;;;;29.23;33.47;100828.56;144089;574;132010;-72
2021/09/01 03:41:37;;;;;;;;;13.00;13.00;;;;;29.28;33.46;100828.94;144075;577;132020;-70
2021/09/01 03:44:11;;;;;;;;;20.50;16.50;;;;;29.24;33.66;100835.66;144083;572;132010;-70
2021/09/01 03:46:45;;;;;;;;;12.00;11.25;;;;;29.18;33.76;100834.44;144081;569;132018;-72
2021/09/01 03:49:19;;;;;;;;;11.25;11.25;;;;;29.15;33.92;100834.78;144086;592;132010;-70
2021/09/01 03:51:53;;;;;;;;;15.50;13.25;;;;;29.09;34.19;100835.41;144074;608;132012;-74
2021/09/01 03:54:26;;;;;;;;;12.50;12.50;;;;;29.07;34.13;100837.44;144073;617;131020;-73
2021/09/01 03:57:00;;;;;;;;;17.75;17.00;;;;;28.92;34.66;100843.44;144080;734;131020;-73
2021/09/01 03:59:34;;;;;;;;;18.75;17.00;;;;;28.83;35.08;100847.97;144085;569;131021;-73
2021/09/01 04:02:09;;;;;;;;;14.75;14.75;;;;;28.79;35.10;100843.03;144077;582;132012;-73
2021/09/01 04:04:43;;;;;;;;;16.75;16.75;;;;;28.49;36.22;100846.00;144086;746;132010;-73
2021/09/01 04:07:17;;;;;;;;;16.00;16.00;;;;;28.60;35.95;100844.06;144075;603;132021;-70
2021/09/01 04:09:51;;;;;;;;;13.25;13.25;;;;;28.76;35.70;100846.91;144088;618;131020;-71
2021/09/01 04:12:24;;;;;;;;;15.00;15.00;;;;;28.85;35.57;100840.53;144081;698;132018;-70
2021/09/01 04:14:58;;;;;;;;;16.50;16.50;;;;;28.69;35.91;100851.22;144084;573;132012;-70
2021/09/01 04:17:32;;;;;;;;;14.75;14.50;;;;;28.66;35.91;100844.28;144080;638;132913;-69
2021/09/01 04:20:06;;;;;;;;;15.25;14.75;;;;;28.75;35.67;100850.59;144069;594;132011;-69
2021/09/01 04:22:40;;;;;;;;;10.75;10.75;;;;;28.79;35.60;100856.53;144077;606;132012;-69
2021/09/01 04:25:15;;;;;;;;;14.50;14.50;;;;;28.90;35.51;100863.50;144078;575;134010;-68
2021/09/01 04:27:49;;;;;;;;;15.50;11.50;;;;;29.18;35.29;100865.06;144074;587;132012;-69
2021/09/01 04:30:22;;;;;;;;;17.75;14.50;;;;;29.45;34.67;100868.56;144083;584;132010;-69
2021/09/01 04:32:56;;;;;;;;;15.75;15.00;;;;;29.58;34.76;100873.53;144076;621;132014;-69
2021/09/01 04:35:30;;;;;;;;;20.00;18.75;;;;;29.57;34.78;100870.97;144081;570;132012;-70
2021/09/01 04:38:04;;;;;;;;;18.75;15.25;;;;;29.59;34.82;100879.78;144087;599;132012;-69
2021/09/01 04:40:38;;;;;;;;;20.50;20.00;;;;;29.58;35.16;100876.22;144084;619;132012;-70
2021/09/01 04:43:12;;;;;;;;;23.25;19.00;;;;;29.60;35.26;100881.47;144078;652;132913;-71
2021/09/01 04:45:46;;;;;;;;;18.00;17.00;;;;;29.59;35.36;100874.37;144068;561;132012;-70
2021/09/01 04:48:20;;;;;;;;;22.00;21.00;;;;;29.65;35.45;100879.97;144077;606;132913;-71
2021/09/01 04:50:56;;;;;;;;;14.50;14.50;;;;;29.82;35.24;100890.84;144083;603;132011;-71
2021/09/01 04:53:30;;;;;;;;;17.50;14.25;;;;;29.97;34.92;100891.06;144074;680;132014;-72
2021/09/01 04:56:04;;;;;;;;;18.75;16.50;;;;;30.11;34.75;100895.00;144084;563;132012;-72
2021/09/01 04:58:38;;;;;;;;;20.75;18.25;;;;;30.30;34.71;100897.38;144077;701;132913;-72
2021/09/01 05:01:12;;;;;;;;;17.75;17.00;;;;;30.45;34.42;100908.41;144086;619;131020;-72
2021/09/01 05:03:47;;;;;;;;;17.75;17.75;;;;;30.57;34.11;100916.22;144096;603;132015;-72
2021/09/01 05:06:21;;;;;;;;;16.00;14.75;;;;;30.83;33.41;100913.31;144087;670;132010;-72
2021/09/01 05:08:55;;;;;;;;;16.75;15.50;;;;;30.94;33.36;100912.97;144080;626;132012;-73
2021/09/01 05:11:29;;;;;;;;;20.25;18.00;;;;;31.02;33.21;100920.25;144070;623;132008;-71
2021/09/01 05:14:03;;;;;;;;;18.50;16.50;;;;;31.05;33.20;100919.91;144075;620;132021;-71
2021/09/01 05:16:37;;;;;;;;;19.00;17.50;;;;;31.15;33.27;100925.16;144087;592;132010;-70
2021/09/01 05:19:11;;;;;;;;;16.75;16.50;;;;;31.22;33.22;100927.00;144077;576;132913;-71
2021/09/01 05:21:54;;;;;;;;;14.75;14.75;;;;;31.40;33.20;100931.38;144085;598;132012;-71
2021/09/01 05:24:46;;;;;;;;;17.75;15.50;;;;;31.57;32.71;100934.84;144076;577;132913;-69
2021/09/01 05:27:22;;;;;;;;;17.00;17.00;;;;;31.72;33.03;100935.81;144085;619;131028;-70
2021/09/01 05:29:56;;;;;;;;;15.50;15.50;;;;;31.83;32.90;100945.44;144087;720;132913;-74
2021/09/01 05:32:32;;;;;;;;;15.50;15.50;;;;;32.04;33.06;100946.69;144094;574;132012;-75
2021/09/01 05:35:07;;;;;;;;;18.00;16.50;;;;;32.16;33.07;100931.69;144078;607;132012;-69
2021/09/01 05:37:41;;;;;;;;;17.00;16.00;;;;;32.26;32.91;100944.22;144071;657;132012;-73
2021/09/01 05:40:16;;;;;;;;;15.75;15.75;;;;;32.47;32.98;100940.84;144078;606;132913;-74
2021/09/01 05:42:51;;;;;;;;;16.50;15.50;;;;;32.53;32.75;100923.78;144083;651;132012;-72
2021/09/01 05:45:26;;;;;;;;;17.50;17.50;;;;;32.76;32.01;100917.53;144077;609;132913;-70
2021/09/01 05:48:01;;;;;;;;;13.25;13.25;;;;;32.86;32.21;100910.81;144083;565;132012;-69
2021/09/01 05:50:36;;;;;;;;;14.00;13.75;;;;;32.96;32.01;100912.38;144075;564;132020;-70
2021/09/01 05:53:10;;;;;;;;;16.50;16.50;;;;;33.04;31.65;100912.31;144086;564;131045;-72
2021/09/01 05:55:47;;;;;;;;;21.25;19.50;;;;;33.06;31.45;100911.06;144087;578;132913;-70
2021/09/01 05:58:22;;;;;;;;;14.25;13.00;;;;;33.17;31.15;100906.22;144085;569;131021;-71
2021/09/01 06:01:01;;;;;;;;;13.50;12.50;;;;;33.30;30.96;100898.28;144076;626;132012;-69
2021/09/01 06:03:37;;;;;;;;;16.75;16.75;;;;;33.45;30.76;100886.53;144072;604;131022;-70
2021/09/01 06:06:16;;;;;;;;;12.25;9.00;;;;;33.55;30.23;100885.19;144082;680;132913;-69
2021/09/01 06:08:50;;;;;;;;;14.00;14.00;;;;;33.70;29.89;100881.63;144087;596;131020;-69
2021/09/01 06:11:28;;;;;;;;;16.50;15.00;;;;;33.82;29.79;100885.56;144077;625;131913;-70
2021/09/01 06:14:02;;;;;;;;;16.00;13.50;;;;;33.87;29.71;100891.28;144085;579;132010;-68
2021/09/01 06:16:43;;;;;;;;;14.00;14.00;;;;;33.88;29.84;100900.28;144083;593;132913;-70
2021/09/01 06:19:17;;;;;;;;;16.75;14.75;;;;;33.85;29.67;100896.06;144085;613;132012;-70
2021/09/01 06:21:51;;;;;;;;;14.00;13.00;;;;;34.00;29.49;100889.72;144086;597;132014;-76
2021/09/01 06:24:25;;;;;;;;;18.00;16.75;;;;;34.08;29.53;100892.31;144086;624;132010;-71
2021/09/01 06:26:59;;;;;;;;;14.25;13.75;;;;;34.12;29.34;100888.19;144074;578;132020;-72
2021/09/01 06:29:33;;;;;;;;;15.25;14.75;;;;;33.88;29.81;100884.78;144069;559;132010;-73
2021/09/01 06:32:07;;;;;;;;;19.00;17.75;;;;;33.95;29.79;100879.41;144074;563;132020;-72
2021/09/01 06:34:42;;;;;;;;;16.50;16.25;;;;;33.85;30.18;100882.44;144085;596;132012;-71
2021/09/01 06:37:16;;;;;;;;;15.25;15.25;;;;;33.78;30.23;100886.97;144077;586;132012;-70
2021/09/01 06:39:51;;;;;;;;;17.50;16.50;;;;;33.85;30.58;100882.44;144084;691;132010;-71
2021/09/01 06:42:26;;;;;;;;;14.00;14.00;;;;;33.98;30.44;100886.34;144076;564;132913;-71
2021/09/01 06:45:00;;;;;;;;;18.75;14.75;;;;;33.74;31.05;100877.47;144086;569;132010;-71
2021/09/01 06:47:51;;;;;;;;;17.50;15.75;;;;;33.79;31.10;100876.91;144091;631;132913;-70
2021/09/01 06:50:28;;;;;;;;;18.50;18.00;;;;;33.21;31.97;100880.34;144084;586;132021;-71
2021/09/01 06:53:02;;;;;;;;;16.50;16.50;;;;;33.62;31.59;100870.84;144078;626;132913;-71
2021/09/01 06:55:36;;;;;;;;;17.00;15.00;;;;;33.92;31.54;100879.78;144068;612;132010;-71
2021/09/01 06:58:21;;;;;;;;;17.25;16.25;;;;;33.95;31.65;100884.00;144077;678;132012;-71
2021/09/01 07:00:55;;;;;;;;;14.00;14.00;;;;;34.15;31.55;100889.66;144089;579;131020;-71
2021/09/01 07:03:28;;;;;;;;;17.50;17.50;;;;;33.58;32.95;100884.81;144079;591;131913;-71
2021/09/01 07:06:06;;;;;;;;;18.50;18.50;;;;;34.18;32.10;100871.03;144087;595;131021;-71
2021/09/01 07:08:40;;;;;;;;;17.75;17.75;;;;;34.38;32.44;100884.87;144079;622;131913;-71
2021/09/01 07:11:14;;;;;;;;;16.25;16.25;;;;;34.45;32.41;100882.22;144090;573;131020;-74
2021/09/01 07:13:48;;;;;;;;;21.50;19.75;;;;;33.78;34.43;100878.81;144095;565;131031;-72
2021/09/01 07:16:22;;;;;;;;;23.50;23.50;;;;;33.44;35.21;100882.97;144090;583;131020;-72
2021/09/01 07:18:56;;;;;;;;;21.50;21.50;;;;;32.67;36.08;100881.37;144078;576;131913;-73
2021/09/01 07:21:30;;;;;;;;;19.50;19.50;;;;;32.49;36.27;100893.44;144071;570;131022;-71
2021/09/01 07:24:04;;;;;;;;;19.00;18.00;;;;;32.04;37.20;100879.66;144081;612;131913;-72
2021/09/01 07:26:39;;;;;;;;;21.00;20.50;;;;;32.81;36.35;100879.78;144087;630;132012;-74
2021/09/01 07:29:13;;;;;;;;;21.25;21.00;;;;;32.54;37.84;100876.59;144075;686;132913;-73
2021/09/01 07:31:47;;;;;;;;;22.75;22.00;;;;;32.14;39.27;100876.72;144081;586;132012;-73
2021/09/01 07:34:21;;;;;;;;;21.50;21.50;;;;;31.49;40.44;100888.75;144075;672;132013;-73
2021/09/01 07:36:55;;;;;;;;;22.75;21.25;;;;;33.10;37.45;100881.66;144088;570;131020;-73
2021/09/01 07:39:29;;;;;;;;;20.75;20.75;;;;;31.94;38.92;100889.91;144087;621;132014;-73
2021/09/01 07:42:03;;;;;;;;;21.25;20.25;;;;;32.53;37.94;100886.62;144088;590;131021;-72
2021/09/01 07:44:36;;;;;;;;;22.75;21.75;;;;;32.48;37.68;100896.31;144074;631;132018;-73
2021/09/01 07:47:10;;;;;;;;;23.50;22.75;;;;;31.41;39.85;100911.31;144073;648;131020;-74
2021/09/01 07:49:45;;;;;;;;;18.00;17.25;;;;;31.23;39.95;100903.44;144077;571;132913;-73
2021/09/01 07:52:19;;;;;;;;;23.75;22.50;;;;;31.98;38.82;100896.66;144089;569;132012;-74
2021/09/01 07:54:52;;;;;;;;;19.25;18.75;;;;;31.88;38.86;100898.78;144072;630;132014;-73
2021/09/01 07:57:26;;;;;;;;;24.00;23.00;;;;;31.84;39.02;100898.28;144084;584;132012;-73
2021/09/01 08:00:00;;;;;;;;;20.25;20.25;;;;;32.48;37.65;100896.31;144075;593;131890;-73
2021/09/01 08:02:34;;;;;;;;;20.50;20.50;;;;;31.72;39.39;100905.13;144083;572;133011;-72
2021/09/01 08:05:10;;;;;;;;;21.00;19.25;;;;;32.34;38.15;100896.12;144088;629;132914;-72
2021/09/01 08:07:44;;;;;;;;;18.00;18.00;;;;;31.93;37.34;100899.06;144087;602;131020;-73
2021/09/01 08:10:18;;;;;;;;;20.50;19.00;;;;;31.81;38.67;100886.91;144077;577;132913;-73
2021/09/01 08:12:52;;;;;;;;;22.25;21.00;;;;;31.58;39.19;100894.97;144069;578;132010;-74
2021/09/01 08:15:26;;;;;;;;;17.00;17.00;;;;;31.98;38.52;100888.53;144079;610;132012;-73
2021/09/01 08:18:00;;;;;;;;;20.25;20.25;;;;;31.80;39.03;100886.09;144089;570;132011;-72
2021/09/01 08:20:34;;;;;;;;;21.50;20.25;;;;;31.68;39.17;100898.37;144078;604;131016;-74
2021/09/01 08:23:08;;;;;;;;;19.25;19.25;;;;;31.89;38.45;100890.44;144085;593;132012;-73
2021/09/01 08:25:42;;;;;;;;;19.50;19.50;;;;;31.91;38.41;100890.28;144072;594;132014;-75
2021/09/01 08:28:16;;;;;;;;;19.50;19.50;;;;;32.24;38.19;100881.91;144084;601;131020;-73
2021/09/01 08:30:50;;;;;;;;;21.50;21.50;;;;;32.54;37.25;100882.84;144083;627;132012;-72
2021/09/01 08:33:24;;;;;;;;;19.00;19.00;;;;;32.77;36.54;100879.28;144086;610;132010;-73
2021/09/01 08:35:58;;;;;;;;;19.00;16.75;;;;;32.21;37.88;100893.16;144071;573;132912;-73
2021/09/01 08:38:32;;;;;;;;;17.25;16.75;;;;;32.96;36.45;100877.03;144070;578;132010;-73
2021/09/01 08:41:06;;;;;;;;;23.00;23.00;;;;;32.77;36.48;100892.03;144073;581;132913;-73
2021/09/01 08:43:41;;;;;;;;;19.25;18.00;;;;;32.50;37.33;100886.97;144085;565;132010;-73
2021/09/01 08:46:15;;;;;;;;;19.25;19.25;;;;;32.62;36.99;100881.94;144076;606;132913;-73
2021/09/01 08:48:50;;;;;;;;;17.50;15.50;;;;;33.02;36.24;100885.28;144083;576;132012;-73
2021/09/01 08:51:24;;;;;;;;;21.50;20.50;;;;;33.33;35.42;100873.41;144068;691;132018;-74
2021/09/01 08:54:00;;;;;;;;;17.75;17.75;;;;;33.52;35.27;100882.88;144087;570;132010;-73
2021/09/01 08:56:34;;;;;;;;;18.50;17.25;;;;;33.64;34.64;100883.22;144087;592;132012;-72
2021/09/01 08:59:08;;;;;;;;;18.00;18.00;;;;;34.43;33.00;100881.56;144091;583;132010;-73
2021/09/01 09:01:56;;;;;;;;;16.75;16.75;;;;;33.36;35.61;100885.81;144081;571;131913;-74
2021/09/01 09:04:38;;;;;;;;;17.50;16.00;;;;;33.11;36.16;100887.91;144065;606;132012;-74
2021/09/01 09:07:16;;;;;;;;;18.25;18.00;;;;;32.90;35.72;100887.66;144075;619;132012;-73
2021/09/01 09:09:49;;;;;;;;;20.00;18.75;;;;;33.37;34.98;100882.88;144084;609;132012;-73
2021/09/01 09:12:34;;;;;;;;;21.00;19.50;;;;;33.24;35.70;100877.25;144074;570;132913;-73
2021/09/01 09:15:09;;;;;;;;;12.25;11.25;;;;;33.60;34.41;100868.31;144085;629;131020;-73
2021/09/01 09:17:44;;;;;;;;;15.50;15.50;;;;;33.13;35.13;100862.22;144077;620;132020;-73
2021/09/01 09:20:18;;;;;;;;;17.75;17.75;;;;;32.95;36.64;100859.06;144088;575;132012;-73
2021/09/01 09:22:54;;;;;;;;;16.75;16.75;;;;;32.18;37.38;100850.91;144093;591;131913;-72
2021/09/01 09:25:33;;;;;;;;;20.25;20.25;;;;;33.55;33.73;100863.44;144083;573;132011;-72
2021/09/01 09:28:09;;;;;;;;;11.25;11.25;;;;;32.81;35.15;100866.19;144072;609;132014;-73
2021/09/01 09:30:45;;;;;;;;;16.25;16.25;;;;;33.54;34.00;100864.44;144068;670;132010;-73
2021/09/01 09:33:24;;;;;;;;;14.50;14.50;;;;;33.87;32.83;100872.22;144077;595;132021;-72
2021/09/01 09:36:06;;;;;;;;;17.25;16.75;;;;;33.20;34.29;100868.63;144088;564;132012;-75
2021/09/01 09:38:48;;;;;;;;;21.75;20.50;;;;;34.42;33.16;100871.72;144078;584;132015;-72
2021/09/01 09:41:29;;;;;;;;;16.50;15.75;;;;;33.70;35.02;100868.00;144086;689;132012;-73
2021/09/01 09:44:07;;;;;;;;;14.75;14.75;;;;;33.06;35.99;100859.41;144078;569;132020;-74
2021/09/01 09:46:55;;;;;;;;;18.25;18.25;;;;;32.83;36.51;100850.50;144087;639;131021;-74
2021/09/01 09:49:35;;;;;;;;;16.50;16.50;;;;;33.18;35.61;100851.63;144084;593;132019;-74
2021/09/01 09:52:18;;;;;;;;;21.50;20.75;;;;;33.64;35.56;100846.97;144085;569;132010;-75
2021/09/01 09:54:52;;;;;;;;;18.50;17.50;;;;;34.24;34.58;100836.72;144078;854;131913;-72
2021/09/01 09:57:26;;;;;;;;;17.00;17.00;;;;;33.45;36.18;100832.97;144073;655;132012;-71
2021/09/01 10:00:00;;;;;;;;;18.50;18.50;;;;;34.22;34.51;100831.47;144075;703;132012;-73
2021/09/01 10:02:34;;;;;;;;;18.75;18.75;;;;;34.01;34.55;100835.06;144083;586;132011;-73
2021/09/01 10:05:08;;;;;;;;;15.50;14.75;;;;;33.85;35.16;100836.16;144075;634;132012;-73
2021/09/01 10:07:44;;;;;;;;;21.25;21.25;;;;;34.32;34.13;100835.78;144090;619;132010;-73
2021/09/01 10:10:19;;;;;;;;;16.25;15.75;;;;;33.90;34.96;100833.69;144073;591;132914;-74
2021/09/01 10:12:53;;;;;;;;;20.00;19.75;;;;;33.46;35.45;100842.78;144079;564;132012;-74
2021/09/01 10:15:35;;;;;;;;;20.25;20.25;;;;;32.73;37.36;100837.19;144085;667;132913;-74
2021/09/01 10:18:12;;;;;;;;;15.75;14.50;;;;;33.98;35.13;100846.34;144093;585;132020;-73
2021/09/01 10:20:49;;;;;;;;;15.25;11.50;;;;;32.99;36.39;100825.84;144074;579;132913;-74
2021/09/01 10:23:48;;;;;;;;;21.75;20.50;;;;;32.97;36.69;100827.06;144072;597;132010;-73
2021/09/01 10:26:33;;;;;;;;;20.25;20.25;;;;;33.29;36.06;100820.41;144074;610;132019;-72
2021/09/01 10:29:07;;;;;;;;;15.25;14.75;;;;;33.36;35.50;100823.22;144089;596;131033;-72
2021/09/01 10:32:28;;;;;;;;;16.25;15.25;;;;;32.88;36.46;100818.19;144079;587;132913;-74
2021/09/01 10:35:33;;;;;;;;;22.25;21.50;;;;;33.28;37.18;100804.28;144084;576;132010;-74
2021/09/01 10:38:08;;;;;;;;;19.50;19.50;;;;;32.90;38.10;100810.66;144074;581;132913;-73
2021/09/01 10:40:57;;;;;;;;;17.50;17.50;;;;;34.86;34.66;100801.59;144082;647;132012;-72
2021/09/01 10:43:31;;;;;;;;;18.00;17.00;;;;;33.10;38.12;100793.78;144089;618;132012;-73
2021/09/01 10:46:07;;;;;;;;;18.75;16.25;;;;;35.08;33.67;100796.87;144090;642;132012;-73
2021/09/01 10:49:01;;;;;;;;;19.75;18.75;;;;;34.04;36.21;100796.53;144076;572;132014;-73
2021/09/01 10:51:35;;;;;;;;;20.75;18.50;;;;;33.86;37.17;100801.59;144096;563;131010;-74
2021/09/01 10:54:31;;;;;;;;;16.00;16.00;;;;;33.76;37.67;100804.59;144100;589;131013;-74
2021/09/01 10:57:08;;;;;;;;;17.25;17.25;;;;;33.42;37.67;100808.84;144108;586;131010;-74
2021/09/01 10:59:43;;;;;;;;;20.50;20.50;;;;;32.87;38.98;100811.03;144101;604;132913;-73
2021/09/01 11:02:19;;;;;;;;;18.00;18.00;;;;;33.23;38.58;100802.97;144108;732;131012;-75
2021/09/01 11:05:11;;;;;;;;;19.75;17.50;;;;;32.38;38.06;100812.38;144097;582;131913;-73
2021/09/01 11:07:48;;;;;;;;;18.25;17.00;;;;;32.85;36.86;100803.09;144109;585;131013;-73
2021/09/01 11:10:22;;;;;;;;;16.00;16.00;;;;;32.36;34.52;100804.41;144104;584;131912;-73
2021/09/01 11:13:06;;;;;;;;;12.25;11.25;;;;;32.61;35.08;100800.59;144112;647;131010;-74
2021/09/01 11:15:50;;;;;;;;;15.00;14.25;;;;;32.53;36.09;100796.94;144103;604;132020;-74
2021/09/01 11:18:24;;;;;;;;;13.75;13.75;;;;;32.84;36.01;100793.22;144094;621;131012;-73
2021/09/01 11:20:58;;;;;;;;;19.50;19.50;;;;;34.36;32.78;100777.13;144104;573;131913;-74
2021/09/01 11:23:32;;;;;;;;;15.00;15.00;;;;;35.10;30.67;100780.31;144111;571;130023;-73
2021/09/01 11:26:07;;;;;;;;;18.75;17.50;;;;;35.00;30.67;100776.06;144102;718;131014;-74
2021/09/01 11:28:41;;;;;;;;;18.25;16.25;;;;;34.99;32.40;100777.09;144113;685;130020;-73
2021/09/01 11:31:27;;;;;;;;;12.75;12.75;;;;;35.00;32.42;100775.22;144098;648;131013;-72
2021/09/01 11:34:02;;;;;;;;;21.00;19.25;;;;;35.01;31.52;100771.47;144115;615;130020;-74
2021/09/01 11:36:39;;;;;;;;;18.25;17.50;;;;;35.15;32.32;100775.09;144119;591;130913;-72
2021/09/01 11:39:16;;;;;;;;;17.75;16.75;;;;;34.77;33.00;100773.59;144107;569;131012;-73
2021/09/01 11:41:59;;;;;;;;;18.50;17.25;;;;;34.00;34.43;100765.28;144102;570;131014;-72
2021/09/01 11:44:34;;;;;;;;;18.25;18.25;;;;;34.20;33.53;100757.28;144094;698;130021;-73